sensor_id;sensor_type;location;lat;lon;timestamp;pressure;altitude;pressure_sealevel;temperature;humidity
13968;BME280;39536;52.198;9.920;2022-12-08T00:00:26;99999.09;;;3.28;100.00
13968;BME280;39536;52.198;9.920;2022-12-08T00:02:53;99999.09;;;3.27;100.00
13968;BME280;39536;52.198;9.920;2022-12-08T00:05:21;99999.94;;;3.29;100.00
13968;BME280;39536;52.198;9.920;2022-12-08T00:08:07;99993.88;;;3.33;100.00
13968;BME280;39536;52.198;9.920;2022-12-08T00:10:51;99993.88;;;3.34;100.00
13968;BME280;39536;52.198;9.920;2022-12-08T00:13:18;99987.88;;;3.32;100.00
13968;BME280;39536;52.198;9.920;2022-12-08T00:15:45;99983.56;;;3.34;100.00
13968;BME280;39536;52.198;9.920;2022-12-08T00:18:12;99970.69;;;3.33;100.00
13968;BME280;39536;52.198;9.920;2022-12-08T00:20:40;99976.66;;;3.36;100.00
13968;BME280;39536;52.198;9.920;2022-12-08T00:23:07;99972.47;;;3.31;100.00
13968;BME280;39536;52.198;9.920;2022-12-08T00:25:35;99981.00;;;3.33;100.00
13968;BME280;39536;52.198;9.920;2022-12-08T00:28:02;99971.66;;;3.27;100.00
13968;BME280;39536;52.198;9.920;2022-12-08T00:30:28;99972.56;;;3.21;100.00
13968;BME280;39536;52.198;9.920;2022-12-08T00:32:55;99970.81;;;3.23;100.00
13968;BME280;39536;52.198;9.920;2022-12-08T00:35:22;99969.16;;;3.21;100.00
13968;BME280;39536;52.198;9.920;2022-12-08T00:37:50;99969.06;;;3.27;100.00
13968;BME280;39536;52.198;9.920;2022-12-08T00:40:17;99969.19;;;3.18;100.00
13968;BME280;39536;52.198;9.920;2022-12-08T00:42:44;99961.47;;;3.18;100.00
13968;BME280;39536;52.198;9.920;2022-12-08T00:45:11;99956.28;;;3.19;100.00
13968;BME280;39536;52.198;9.920;2022-12-08T00:47:37;99955.47;;;3.16;100.00
13968;BME280;39536;52.198;9.920;2022-12-08T00:50:05;99951.22;;;3.13;100.00
13968;BME280;39536;52.198;9.920;2022-12-08T00:52:32;99947.00;;;3.06;100.00
13968;BME280;39536;52.198;9.920;2022-12-08T00:55:00;99947.00;;;3.06;100.00
13968;BME280;39536;52.198;9.920;2022-12-08T00:57:27;99947.84;;;3.05;100.00
13968;BME280;39536;52.198;9.920;2022-12-08T00:59:54;99948.00;;;2.94;100.00
13968;BME280;39536;52.198;9.920;2022-12-08T01:02:21;99942.78;;;3.00;100.00
13968;BME280;39536;52.198;9.920;2022-12-08T01:04:48;99943.69;;;2.96;100.00
13968;BME280;39536;52.198;9.920;2022-12-08T01:07:14;99945.38;;;2.96;100.00
13968;BME280;39536;52.198;9.920;2022-12-08T01:09:41;99944.50;;;2.98;100.00
13968;BME280;39536;52.198;9.920;2022-12-08T01:12:09;99945.38;;;2.97;100.00
13968;BME280;39536;52.198;9.920;2022-12-08T01:14:36;99948.84;;;2.95;100.00
13968;BME280;39536;52.198;9.920;2022-12-08T01:17:03;99947.97;;;2.97;100.00
13968;BME280;39536;52.198;9.920;2022-12-08T01:19:30;99946.31;;;2.93;100.00
13968;BME280;39536;52.198;9.920;2022-12-08T01:21:56;99947.97;;;2.96;100.00
13968;BME280;39536;52.198;9.920;2022-12-08T01:24:23;99949.72;;;2.92;100.00
13968;BME280;39536;52.198;9.920;2022-12-08T01:26:50;99947.97;;;2.97;100.00
13968;BME280;39536;52.198;9.920;2022-12-08T01:29:18;99954.78;;;3.00;100.00
13968;BME280;39536;52.198;9.920;2022-12-08T01:31:45;99949.72;;;2.94;100.00
13968;BME280;39536;52.198;9.920;2022-12-08T01:34:11;99942.75;;;3.04;100.00
13968;BME280;39536;52.198;9.920;2022-12-08T01:36:38;99943.56;;;3.09;100.00
13968;BME280;39536;52.198;9.920;2022-12-08T01:39:07;99945.19;;;3.14;100.00
13968;BME280;39536;52.198;9.920;2022-12-08T01:41:36;99937.50;;;3.13;100.00
13968;BME280;39536;52.198;9.920;2022-12-08T01:47:10;99934.13;;;3.08;100.00
13968;BME280;39536;52.198;9.920;2022-12-08T01:49:37;99931.50;;;3.11;100.00
13968;BME280;39536;52.198;9.920;2022-12-08T01:52:09;99924.66;;;3.08;100.00
13968;BME280;39536;52.198;9.920;2022-12-08T01:54:40;99940.06;;;3.13;100.00
13968;BME280;39536;52.198;9.920;2022-12-08T01:57:10;99932.34;;;3.11;100.00
13968;BME280;39536;52.198;9.920;2022-12-08T01:59:44;99936.69;;;3.09;100.00
13968;BME280;39536;52.198;9.920;2022-12-08T02:02:14;99934.94;;;3.11;100.00
13968;BME280;39536;52.198;9.920;2022-12-08T02:04:41;99938.53;;;2.99;100.00
13968;BME280;39536;52.198;9.920;2022-12-08T02:07:09;99933.47;;;2.90;100.00
13968;BME280;39536;52.198;9.920;2022-12-08T02:09:38;99931.69;;;2.97;100.00
13968;BME280;39536;52.198;9.920;2022-12-08T02:12:06;99932.53;;;2.97;100.00
13968;BME280;39536;52.198;9.920;2022-12-08T02:14:34;99924.81;;;2.96;100.00
13968;BME280;39536;52.198;9.920;2022-12-08T02:17:08;99923.94;;;3.00;100.00
13968;BME280;39536;52.198;9.920;2022-12-08T02:20:10;99920.44;;;3.06;100.00
13968;BME280;39536;52.198;9.920;2022-12-08T02:22:43;99917.94;;;2.99;100.00
13968;BME280;39536;52.198;9.920;2022-12-08T02:25:23;99917.03;;;3.04;100.00
13968;BME280;39536;52.198;9.920;2022-12-08T02:28:00;99906.75;;;3.00;100.00
13968;BME280;39536;52.198;9.920;2022-12-08T02:30:37;99899.16;;;2.93;100.00
13968;BME280;39536;52.198;9.920;2022-12-08T02:36:22;99899.13;;;2.94;100.00
13968;BME280;39536;52.198;9.920;2022-12-08T02:38:55;99905.03;;;3.01;100.00
13968;BME280;39536;52.198;9.920;2022-12-08T02:41:32;99893.94;;;2.97;100.00
13968;BME280;39536;52.198;9.920;2022-12-08T02:44:07;99892.19;;;3.03;100.00
13968;BME280;39536;52.198;9.920;2022-12-08T02:46:39;99893.09;;;2.95;100.00
13968;BME280;39536;52.198;9.920;2022-12-08T02:49:08;99893.09;;;2.97;100.00
13968;BME280;39536;52.198;9.920;2022-12-08T02:51:36;99890.44;;;3.01;100.00
13968;BME280;39536;52.198;9.920;2022-12-08T02:54:03;99882.72;;;3.01;100.00
13968;BME280;39536;52.198;9.920;2022-12-08T02:56:43;99886.28;;;2.91;100.00
13968;BME280;39536;52.198;9.920;2022-12-08T02:59:30;99886.16;;;3.02;100.00
13968;BME280;39536;52.198;9.920;2022-12-08T03:02:12;99879.31;;;3.01;100.00
13968;BME280;39536;52.198;9.920;2022-12-08T03:04:46;99875.94;;;2.97;100.00
13968;BME280;39536;52.198;9.920;2022-12-08T03:07:22;99873.28;;;3.04;100.00
13968;BME280;39536;52.198;9.920;2022-12-08T03:09:52;99860.56;;;2.91;100.00
13968;BME280;39536;52.198;9.920;2022-12-08T03:12:27;99860.63;;;2.88;100.00
13968;BME280;39536;52.198;9.920;2022-12-08T03:14:59;99856.19;;;2.99;100.00
13968;BME280;39536;52.198;9.920;2022-12-08T03:17:28;99857.16;;;2.91;100.00
13968;BME280;39536;52.198;9.920;2022-12-08T03:19:58;99846.06;;;2.86;100.00
13968;BME280;39536;52.198;9.920;2022-12-08T03:22:30;99853.00;;;2.81;100.00
13968;BME280;39536;52.198;9.920;2022-12-08T03:24:58;99850.50;;;2.73;100.00
13968;BME280;39536;52.198;9.920;2022-12-08T03:27:27;99843.59;;;2.78;100.00
13968;BME280;39536;52.198;9.920;2022-12-08T03:29:57;99851.25;;;2.84;100.00
13968;BME280;39536;52.198;9.920;2022-12-08T03:32:27;99845.22;;;2.87;100.00
13968;BME280;39536;52.198;9.920;2022-12-08T03:34:57;99842.59;;;2.90;100.00
13968;BME280;39536;52.198;9.920;2022-12-08T03:37:27;99837.47;;;2.90;100.00
13968;BME280;39536;52.198;9.920;2022-12-08T03:39:55;99840.06;;;2.85;100.00
13968;BME280;39536;52.198;9.920;2022-12-08T03:42:22;99836.53;;;2.94;100.00
13968;BME280;39536;52.198;9.920;2022-12-08T03:44:49;99833.94;;;2.95;100.00
13968;BME280;39536;52.198;9.920;2022-12-08T03:47:15;99835.66;;;2.95;100.00
13968;BME280;39536;52.198;9.920;2022-12-08T03:49:42;99835.63;;;2.99;100.00
13968;BME280;39536;52.198;9.920;2022-12-08T03:52:09;99836.44;;;3.01;100.00
13968;BME280;39536;52.198;9.920;2022-12-08T03:54:35;99836.50;;;2.95;100.00
13968;BME280;39536;52.198;9.920;2022-12-08T03:57:03;99834.78;;;2.96;100.00
13968;BME280;39536;52.198;9.920;2022-12-08T03:59:30;99827.91;;;2.98;100.00
13968;BME280;39536;52.198;9.920;2022-12-08T04:01:57;99825.28;;;3.01;100.00
13968;BME280;39536;52.198;9.920;2022-12-08T04:04:23;99816.69;;;3.02;100.00
13968;BME280;39536;52.198;9.920;2022-12-08T04:06:50;99815.06;;;2.96;100.00
13968;BME280;39536;52.198;9.920;2022-12-08T04:09:17;99827.13;;;2.91;100.00
13968;BME280;39536;52.198;9.920;2022-12-08T04:11:43;99823.56;;;3.01;100.00
13968;BME280;39536;52.198;9.920;2022-12-08T04:14:11;99821.00;;;3.01;100.00
13968;BME280;39536;52.198;9.920;2022-12-08T04:16:38;99815.09;;;2.95;100.00
13968;BME280;39536;52.198;9.920;2022-12-08T04:19:05;99806.44;;;2.99;100.00
13968;BME280;39536;52.198;9.920;2022-12-08T04:21:31;99816.72;;;3.00;100.00
13968;BME280;39536;52.198;9.920;2022-12-08T04:23:58;99814.19;;;2.97;100.00
13968;BME280;39536;52.198;9.920;2022-12-08T04:26:25;99811.66;;;2.94;100.00
13968;BME280;39536;52.198;9.920;2022-12-08T04:28:51;99807.41;;;2.93;100.00
13968;BME280;39536;52.198;9.920;2022-12-08T04:31:19;99805.56;;;3.01;100.00
13968;BME280;39536;52.198;9.920;2022-12-08T04:33:45;99801.25;;;3.04;100.00
13968;BME280;39536;52.198;9.920;2022-12-08T04:36:13;99801.28;;;2.99;100.00
13968;BME280;39536;52.198;9.920;2022-12-08T04:38:39;99797.06;;;2.95;100.00
13968;BME280;39536;52.198;9.920;2022-12-08T04:41:06;99796.94;;;3.06;100.00
13968;BME280;39536;52.198;9.920;2022-12-08T04:43:33;99800.28;;;3.11;100.00
13968;BME280;39536;52.198;9.920;2022-12-08T04:46:00;99794.34;;;3.07;100.00
13968;BME280;39536;52.198;9.920;2022-12-08T04:48:28;99793.56;;;3.00;100.00
13968;BME280;39536;52.198;9.920;2022-12-08T04:50:54;99786.75;;;2.98;100.00
13968;BME280;39536;52.198;9.920;2022-12-08T04:53:21;99797.03;;;2.99;100.00
13968;BME280;39536;52.198;9.920;2022-12-08T04:55:47;99796.19;;;2.96;100.00
13968;BME280;39536;52.198;9.920;2022-12-08T04:58:16;99785.94;;;2.94;100.00
13968;BME280;39536;52.198;9.920;2022-12-08T05:00:44;99785.81;;;3.02;100.00
13968;BME280;39536;52.198;9.920;2022-12-08T05:03:12;99779.84;;;3.01;100.00
13968;BME280;39536;52.198;9.920;2022-12-08T05:05:41;99778.13;;;3.00;100.00
13968;BME280;39536;52.198;9.920;2022-12-08T05:08:08;99779.91;;;2.95;100.00
13968;BME280;39536;52.198;9.920;2022-12-08T05:10:35;99771.19;;;3.07;100.00
13968;BME280;39536;52.198;9.920;2022-12-08T05:13:03;99772.88;;;3.08;100.00
13968;BME280;39536;52.198;9.920;2022-12-08T05:15:29;99766.88;;;3.09;100.00
13968;BME280;39536;52.198;9.920;2022-12-08T05:17:56;99771.97;;;3.11;100.00
13968;BME280;39536;52.198;9.920;2022-12-08T05:20:22;99769.53;;;3.01;100.00
13968;BME280;39536;52.198;9.920;2022-12-08T05:22:51;99773.75;;;3.07;100.00
13968;BME280;39536;52.198;9.920;2022-12-08T05:25:18;99772.78;;;3.16;100.00
13968;BME280;39536;52.198;9.920;2022-12-08T05:27:44;99764.16;;;3.17;100.00
13968;BME280;39536;52.198;9.920;2022-12-08T05:30:11;99767.59;;;3.19;100.00
13968;BME280;39536;52.198;9.920;2022-12-08T05:32:38;99758.97;;;3.20;100.00
13968;BME280;39536;52.198;9.920;2022-12-08T05:35:05;99752.09;;;3.22;100.00
13968;BME280;39536;52.198;9.920;2022-12-08T05:37:32;99771.81;;;3.23;100.00
13968;BME280;39536;52.198;9.920;2022-12-08T05:40:00;99763.19;;;3.27;100.00
13968;BME280;39536;52.198;9.920;2022-12-08T05:42:26;99759.81;;;3.20;100.00
13968;BME280;39536;52.198;9.920;2022-12-08T05:44:53;99758.09;;;3.22;100.00
13968;BME280;39536;52.198;9.920;2022-12-08T05:47:19;99756.31;;;3.26;100.00
13968;BME280;39536;52.198;9.920;2022-12-08T05:49:46;99752.06;;;3.25;100.00
13968;BME280;39536;52.198;9.920;2022-12-08T05:52:12;99747.78;;;3.22;100.00
13968;BME280;39536;52.198;9.920;2022-12-08T05:54:41;99755.56;;;3.21;100.00
13968;BME280;39536;52.198;9.920;2022-12-08T05:57:08;99753.00;;;3.19;100.00
13968;BME280;39536;52.198;9.920;2022-12-08T05:59:35;99746.09;;;3.21;100.00
13968;BME280;39536;52.198;9.920;2022-12-08T06:02:01;99746.06;;;3.23;100.00
13968;BME280;39536;52.198;9.920;2022-12-08T06:04:28;99746.84;;;3.28;100.00
13968;BME280;39536;52.198;9.920;2022-12-08T06:06:54;99736.50;;;3.31;100.00
13968;BME280;39536;52.198;9.920;2022-12-08T06:09:21;99751.16;;;3.28;100.00
13968;BME280;39536;52.198;9.920;2022-12-08T06:11:47;99737.41;;;3.29;100.00
13968;BME280;39536;52.198;9.920;2022-12-08T06:14:15;99746.03;;;3.26;100.00
13968;BME280;39536;52.198;9.920;2022-12-08T06:16:42;99743.53;;;3.21;100.00
13968;BME280;39536;52.198;9.920;2022-12-08T06:19:08;99743.69;;;3.11;100.00
13968;BME280;39536;52.198;9.920;2022-12-08T06:21:35;99751.41;;;3.12;100.00
13968;BME280;39536;52.198;9.920;2022-12-08T06:24:01;99748.03;;;3.09;100.00
13968;BME280;39536;52.198;9.920;2022-12-08T06:26:28;99741.16;;;3.08;100.00
13968;BME280;39536;52.198;9.920;2022-12-08T06:28:54;99742.09;;;3.02;100.00
13968;BME280;39536;52.198;9.920;2022-12-08T06:31:24;99749.88;;;2.97;100.00
13968;BME280;39536;52.198;9.920;2022-12-08T06:33:51;99751.69;;;2.89;100.00
13968;BME280;39536;52.198;9.920;2022-12-08T06:36:19;99753.34;;;2.95;100.00
13968;BME280;39536;52.198;9.920;2022-12-08T06:38:47;99753.38;;;2.93;100.00
13968;BME280;39536;52.198;9.920;2022-12-08T06:41:14;99752.63;;;2.85;100.00
13968;BME280;39536;52.198;9.920;2022-12-08T06:43:40;99754.28;;;2.89;100.00
13968;BME280;39536;52.198;9.920;2022-12-08T06:46:09;99754.34;;;2.83;100.00
13968;BME280;39536;52.198;9.920;2022-12-08T06:48:37;99748.41;;;2.80;100.00
13968;BME280;39536;52.198;9.920;2022-12-08T06:51:05;99753.59;;;2.76;100.00
13968;BME280;39536;52.198;9.920;2022-12-08T06:53:32;99756.22;;;2.73;100.00
13968;BME280;39536;52.198;9.920;2022-12-08T06:55:58;99756.22;;;2.75;100.00
13968;BME280;39536;52.198;9.920;2022-12-08T06:58:25;99749.47;;;2.65;100.00
13968;BME280;39536;52.198;9.920;2022-12-08T07:00:51;99755.38;;;2.73;100.00
13968;BME280;39536;52.198;9.920;2022-12-08T07:03:18;99754.53;;;2.72;100.00
13968;BME280;39536;52.198;9.920;2022-12-08T07:05:46;99754.47;;;2.74;100.00
13968;BME280;39536;52.198;9.920;2022-12-08T07:08:12;99760.38;;;2.82;100.00
13968;BME280;39536;52.198;9.920;2022-12-08T07:10:39;99757.91;;;2.76;100.00
13968;BME280;39536;52.198;9.920;2022-12-08T07:13:05;99760.38;;;2.82;100.00
13968;BME280;39536;52.198;9.920;2022-12-08T07:15:32;99760.38;;;2.84;100.00
13968;BME280;39536;52.198;9.920;2022-12-08T07:17:58;99760.25;;;2.91;100.00
13968;BME280;39536;52.198;9.920;2022-12-08T07:20:25;99760.13;;;3.00;100.00
13968;BME280;39536;52.198;9.920;2022-12-08T07:22:53;99768.75;;;2.98;100.00
13968;BME280;39536;52.198;9.920;2022-12-08T07:25:19;99760.13;;;3.00;100.00
13968;BME280;39536;52.198;9.920;2022-12-08T07:27:46;99759.28;;;3.00;100.00
13968;BME280;39536;52.198;9.920;2022-12-08T07:30:14;99757.56;;;2.99;100.00
13968;BME280;39536;52.198;9.920;2022-12-08T07:32:41;99766.16;;;2.99;100.00
13968;BME280;39536;52.198;9.920;2022-12-08T07:35:08;99766.13;;;3.01;100.00
13968;BME280;39536;52.198;9.920;2022-12-08T07:37:35;99764.44;;;2.98;100.00
13968;BME280;39536;52.198;9.920;2022-12-08T07:40:04;99760.06;;;3.05;100.00
13968;BME280;39536;52.198;9.920;2022-12-08T07:42:31;99752.41;;;3.00;100.00
13968;BME280;39536;52.198;9.920;2022-12-08T07:44:57;99760.84;;;3.10;100.00
13968;BME280;39536;52.198;9.920;2022-12-08T07:47:24;99760.06;;;3.05;100.00
13968;BME280;39536;52.198;9.920;2022-12-08T07:49:51;99760.13;;;3.00;100.00
13968;BME280;39536;52.198;9.920;2022-12-08T07:52:17;99764.34;;;3.06;100.00
13968;BME280;39536;52.198;9.920;2022-12-08T07:54:44;99774.56;;;3.11;100.00
13968;BME280;39536;52.198;9.920;2022-12-08T07:57:12;99757.38;;;3.11;100.00
13968;BME280;39536;52.198;9.920;2022-12-08T07:59:38;99762.53;;;3.13;100.00
13968;BME280;39536;52.198;9.920;2022-12-08T08:02:05;99764.34;;;3.06;100.00
13968;BME280;39536;52.198;9.920;2022-12-08T08:04:31;99758.41;;;3.01;100.00
13968;BME280;39536;52.198;9.920;2022-12-08T08:06:58;99773.84;;;3.03;100.00
13968;BME280;39536;52.198;9.920;2022-12-08T08:09:24;99764.31;;;3.09;100.00
13968;BME280;39536;52.198;9.920;2022-12-08T08:11:51;99764.34;;;3.05;100.00
13968;BME280;39536;52.198;9.920;2022-12-08T08:14:19;99766.03;;;3.09;100.00
13968;BME280;39536;52.198;9.920;2022-12-08T08:16:46;99759.97;;;3.11;100.00
13968;BME280;39536;52.198;9.920;2022-12-08T08:19:12;99767.63;;;3.16;100.00
13968;BME280;39536;52.198;9.920;2022-12-08T08:21:39;99771.03;;;3.18;100.00
13968;BME280;39536;52.198;9.920;2022-12-08T08:24:06;99769.28;;;3.20;100.00
13968;BME280;39536;52.198;9.920;2022-12-08T08:26:33;99764.16;;;3.17;100.00
13968;BME280;39536;52.198;9.920;2022-12-08T08:28:59;99764.25;;;3.12;100.00
13968;BME280;39536;52.198;9.920;2022-12-08T08:31:27;99771.97;;;3.11;100.00
13968;BME280;39536;52.198;9.920;2022-12-08T08:33:55;99769.31;;;3.17;100.00
13968;BME280;39536;52.198;9.920;2022-12-08T08:36:21;99766.84;;;3.11;100.00
13968;BME280;39536;52.198;9.920;2022-12-08T08:38:48;99775.31;;;3.17;100.00
13968;BME280;39536;52.198;9.920;2022-12-08T08:41:14;99769.41;;;3.11;100.00
13968;BME280;39536;52.198;9.920;2022-12-08T08:43:41;99771.03;;;3.18;100.00
13968;BME280;39536;52.198;9.920;2022-12-08T08:46:08;99770.22;;;3.14;100.00
13968;BME280;39536;52.198;9.920;2022-12-08T08:48:36;99774.41;;;3.21;100.00
13968;BME280;39536;52.198;9.920;2022-12-08T08:51:07;99773.53;;;3.22;100.00
13968;BME280;39536;52.198;9.920;2022-12-08T08:53:34;99779.56;;;3.20;100.00
13968;BME280;39536;52.198;9.920;2022-12-08T08:56:01;99781.25;;;3.22;100.00
13968;BME280;39536;52.198;9.920;2022-12-08T08:58:29;99789.16;;;3.10;100.00
13968;BME280;39536;52.198;9.920;2022-12-08T09:00:56;99787.41;;;3.11;100.00
13968;BME280;39536;52.198;9.920;2022-12-08T09:03:22;99784.72;;;3.21;100.00
13968;BME280;39536;52.198;9.920;2022-12-08T09:05:50;99777.66;;;3.33;100.00
13968;BME280;39536;52.198;9.920;2022-12-08T09:08:16;99776.81;;;3.34;100.00
13968;BME280;39536;52.198;9.920;2022-12-08T09:10:43;99782.75;;;3.36;100.00
13968;BME280;39536;52.198;9.920;2022-12-08T09:13:10;99779.47;;;3.26;100.00
13968;BME280;39536;52.198;9.920;2022-12-08T09:15:36;99781.06;;;3.33;100.00
13968;BME280;39536;52.198;9.920;2022-12-08T09:18:03;99785.41;;;3.31;100.00
13968;BME280;39536;52.198;9.920;2022-12-08T09:20:30;99783.69;;;3.30;100.00
13968;BME280;39536;52.198;9.920;2022-12-08T09:22:58;99787.16;;;3.29;100.00
13968;BME280;39536;52.198;9.920;2022-12-08T09:25:25;99783.63;;;3.35;100.00
13968;BME280;39536;52.198;9.920;2022-12-08T09:27:51;99781.06;;;3.35;100.00
13968;BME280;39536;52.198;9.920;2022-12-08T09:30:18;99793.97;;;3.32;100.00
13968;BME280;39536;52.198;9.920;2022-12-08T09:32:44;99792.34;;;3.28;100.00
13968;BME280;39536;52.198;9.920;2022-12-08T09:35:11;99794.00;;;3.30;100.00
13968;BME280;39536;52.198;9.920;2022-12-08T09:37:38;99794.81;;;3.34;100.00
13968;BME280;39536;52.198;9.920;2022-12-08T09:40:07;99795.75;;;3.27;100.00
13968;BME280;39536;52.198;9.920;2022-12-08T09:42:40;99795.63;;;3.37;100.00
13968;BME280;39536;52.198;9.920;2022-12-08T09:45:11;99797.34;;;3.37;100.00
13968;BME280;39536;52.198;9.920;2022-12-08T09:47:41;99789.59;;;3.38;100.00
13968;BME280;39536;52.198;9.920;2022-12-08T09:50:13;99793.94;;;3.33;100.00
13968;BME280;39536;52.198;9.920;2022-12-08T09:52:45;99791.28;;;3.39;100.00
13968;BME280;39536;52.198;9.920;2022-12-08T09:55:20;99791.97;;;3.52;100.00
13968;BME280;39536;52.198;9.920;2022-12-08T09:57:52;99788.59;;;3.45;100.00
13968;BME280;39536;52.198;9.920;2022-12-08T10:00:20;99783.41;;;3.50;100.00
13968;BME280;39536;52.198;9.920;2022-12-08T10:02:47;99783.50;;;3.44;100.00
13968;BME280;39536;52.198;9.920;2022-12-08T10:05:13;99788.50;;;3.53;100.00
13968;BME280;39536;52.198;9.920;2022-12-08T10:07:44;99789.59;;;3.38;100.00
13968;BME280;39536;52.198;9.920;2022-12-08T10:10:23;99790.47;;;3.36;100.00
13968;BME280;39536;52.198;9.920;2022-12-08T10:12:54;99785.44;;;3.30;100.00
13968;BME280;39536;52.198;9.920;2022-12-08T10:15:40;99788.31;;;3.10;100.00
13968;BME280;39536;52.198;9.920;2022-12-08T10:18:14;99789.09;;;3.15;100.00
13968;BME280;39536;52.198;9.920;2022-12-08T10:20:43;99786.63;;;3.09;100.00
13968;BME280;39536;52.198;9.920;2022-12-08T10:23:20;99784.09;;;3.04;100.00
13968;BME280;39536;52.198;9.920;2022-12-08T10:25:53;99792.84;;;2.91;100.00
13968;BME280;39536;52.198;9.920;2022-12-08T10:28:21;99793.09;;;2.72;100.00
13968;BME280;39536;52.198;9.920;2022-12-08T10:30:48;99792.28;;;2.69;100.00
13968;BME280;39536;52.198;9.920;2022-12-08T10:33:16;99789.88;;;2.55;100.00
13968;BME280;39536;52.198;9.920;2022-12-08T10:35:45;99792.53;;;2.46;100.00
13968;BME280;39536;52.198;9.920;2022-12-08T10:38:18;99783.91;;;2.51;100.00
13968;BME280;39536;52.198;9.920;2022-12-08T10:40:46;99782.25;;;2.47;100.00
13968;BME280;39536;52.198;9.920;2022-12-08T10:43:17;99788.28;;;2.46;100.00
13968;BME280;39536;52.198;9.920;2022-12-08T10:45:46;99777.84;;;2.59;100.00
13968;BME280;39536;52.198;9.920;2022-12-08T10:48:16;99780.22;;;2.72;100.00
13968;BME280;39536;52.198;9.920;2022-12-08T10:50:45;99780.03;;;2.86;100.00
13968;BME280;39536;52.198;9.920;2022-12-08T10:53:19;99768.19;;;2.76;100.00
13968;BME280;39536;52.198;9.920;2022-12-08T10:55:47;99766.34;;;2.87;100.00
13968;BME280;39536;52.198;9.920;2022-12-08T10:58:27;99760.13;;;3.00;100.00
13968;BME280;39536;52.198;9.920;2022-12-08T11:00:56;99757.50;;;3.04;100.00
13968;BME280;39536;52.198;9.920;2022-12-08T11:03:26;99758.19;;;3.16;100.00
13968;BME280;39536;52.198;9.920;2022-12-08T11:05:58;99763.25;;;3.22;100.00
13968;BME280;39536;52.198;9.920;2022-12-08T11:08:26;99754.53;;;3.31;100.00
13968;BME280;39536;52.198;9.920;2022-12-08T11:10:54;99769.22;;;3.24;100.00
13968;BME280;39536;52.198;9.920;2022-12-08T11:13:22;99769.19;;;3.26;100.00
13968;BME280;39536;52.198;9.920;2022-12-08T11:15:52;99772.50;;;3.33;100.00
13968;BME280;39536;52.198;9.920;2022-12-08T11:18:22;99765.69;;;3.30;100.00
13968;BME280;39536;52.198;9.920;2022-12-08T11:20:58;99770.88;;;3.29;100.00
13968;BME280;39536;52.198;9.920;2022-12-08T11:23:25;99759.81;;;3.20;100.00
13968;BME280;39536;52.198;9.920;2022-12-08T11:25:55;99767.63;;;3.16;100.00
13968;BME280;39536;52.198;9.920;2022-12-08T11:28:24;99765.97;;;3.12;100.00
13968;BME280;39536;52.198;9.920;2022-12-08T11:30:56;99762.25;;;3.31;100.00
13968;BME280;39536;52.198;9.920;2022-12-08T11:33:26;99760.47;;;3.35;100.00
13968;BME280;39536;52.198;9.920;2022-12-08T11:35:58;99753.69;;;3.29;100.00
13968;BME280;39536;52.198;9.920;2022-12-08T11:38:26;99754.47;;;3.34;100.00
13968;BME280;39536;52.198;9.920;2022-12-08T11:40:55;99751.72;;;3.46;100.00
13968;BME280;39536;52.198;9.920;2022-12-08T11:43:28;99748.19;;;3.51;100.00
13968;BME280;39536;52.198;9.920;2022-12-08T11:46:00;99741.38;;;3.48;100.00
13968;BME280;39536;52.198;9.920;2022-12-08T11:48:31;99749.78;;;3.59;100.00
13968;BME280;39536;52.198;9.920;2022-12-08T11:51:02;99743.84;;;3.54;100.00
13968;BME280;39536;52.198;9.920;2022-12-08T11:53:34;99745.63;;;3.51;100.00
13968;BME280;39536;52.198;9.920;2022-12-08T11:56:08;99748.94;;;3.57;100.00
13968;BME280;39536;52.198;9.920;2022-12-08T11:58:41;99745.47;;;3.60;100.00
13968;BME280;39536;52.198;9.920;2022-12-08T12:01:18;99752.31;;;3.61;100.00
13968;BME280;39536;52.198;9.920;2022-12-08T12:03:48;99740.38;;;3.57;100.00
13968;BME280;39536;52.198;9.920;2022-12-08T12:06:36;99748.00;;;3.61;100.00
13968;BME280;39536;52.198;9.920;2022-12-08T12:09:12;99744.59;;;3.61;100.00
13968;BME280;39536;52.198;9.920;2022-12-08T12:11:49;99742.13;;;3.55;100.00
13968;BME280;39536;52.198;9.920;2022-12-08T12:17:40;99745.53;;;3.57;100.00
13968;BME280;39536;52.198;9.920;2022-12-08T12:20:14;99751.47;;;3.60;100.00
13968;BME280;39536;52.198;9.920;2022-12-08T12:22:43;99745.44;;;3.63;100.00
13968;BME280;39536;52.198;9.920;2022-12-08T12:25:17;99748.69;;;3.73;100.00
13968;BME280;39536;52.198;9.920;2022-12-08T12:27:44;99748.00;;;3.63;100.00
13968;BME280;39536;52.198;9.920;2022-12-08T12:30:20;99741.13;;;3.63;100.00
13968;BME280;39536;52.198;9.920;2022-12-08T12:32:51;99743.59;;;3.69;100.00
13968;BME280;39536;52.198;9.920;2022-12-08T12:35:28;99741.38;;;3.50;100.00
13968;BME280;39536;52.198;9.920;2022-12-08T12:38:00;99743.09;;;3.47;100.00
13968;BME280;39536;52.198;9.920;2022-12-08T12:40:34;99745.63;;;3.51;100.00
13968;BME280;39536;52.198;9.920;2022-12-08T12:43:12;99750.81;;;3.49;100.00
13968;BME280;39536;52.198;9.920;2022-12-08T12:45:39;99745.78;;;3.43;100.00
13968;BME280;39536;52.198;9.920;2022-12-08T12:48:23;99737.13;;;3.47;100.00
13968;BME280;39536;52.198;9.920;2022-12-08T12:50:51;99743.84;;;3.56;100.00
13968;BME280;39536;52.198;9.920;2022-12-08T12:53:48;99742.06;;;3.58;100.00
13968;BME280;39536;52.198;9.920;2022-12-08T12:59:40;99733.53;;;3.56;100.00
13968;BME280;39536;52.198;9.920;2022-12-08T13:02:17;99737.97;;;3.47;100.00
13968;BME280;39536;52.198;9.920;2022-12-08T13:04:54;99749.16;;;3.45;100.00
13968;BME280;39536;52.198;9.920;2022-12-08T13:07:23;99746.56;;;3.45;100.00
13968;BME280;39536;52.198;9.920;2022-12-08T13:09:55;99746.56;;;3.45;100.00
13968;BME280;39536;52.198;9.920;2022-12-08T13:12:23;99747.41;;;3.47;100.00
13968;BME280;39536;52.198;9.920;2022-12-08T13:15:01;99738.81;;;3.48;100.00
13968;BME280;39536;52.198;9.920;2022-12-08T13:17:30;99741.41;;;3.46;100.00
13968;BME280;39536;52.198;9.920;2022-12-08T13:20:00;99746.56;;;3.45;100.00
13968;BME280;39536;52.198;9.920;2022-12-08T13:25:49;99737.81;;;3.57;100.00